sensor_id;sensor_type;location;lat;lon;timestamp;pressure;altitude;pressure_sealevel;temperature;humidity
49122;BME280;35529;44.342;25.944;2022-09-03T00:01:47;100594.91;;;14.64;100.00
49122;BME280;35529;44.342;25.944;2022-09-03T00:04:18;100597.69;;;14.69;100.00
49122;BME280;35529;44.342;25.944;2022-09-03T00:06:51;100603.88;;;14.70;100.00
49122;BME280;35529;44.342;25.944;2022-09-03T00:11:51;100601.38;;;14.75;100.00
49122;BME280;35529;44.342;25.944;2022-09-03T00:14:20;100602.72;;;14.84;100.00
49122;BME280;35529;44.342;25.944;2022-09-03T00:16:58;100600.41;;;14.88;100.00
49122;BME280;35529;44.342;25.944;2022-09-03T00:19:26;100605.91;;;14.93;100.00
49122;BME280;35529;44.342;25.944;2022-09-03T00:21:58;100609.75;;;14.97;100.00
49122;BME280;35529;44.342;25.944;2022-09-03T00:24:27;100609.34;;;15.00;100.00
49122;BME280;35529;44.342;25.944;2022-09-03T00:27:00;100611.09;;;15.06;100.00
49122;BME280;35529;44.342;25.944;2022-09-03T00:29:32;100622.41;;;15.08;100.00
49122;BME280;35529;44.342;25.944;2022-09-03T00:32:02;100618.47;;;15.11;100.00
49122;BME280;35529;44.342;25.944;2022-09-03T00:34:40;100622.91;;;15.17;100.00
49122;BME280;35529;44.342;25.944;2022-09-03T00:37:13;100624.47;;;15.25;100.00
49122;BME280;35529;44.342;25.944;2022-09-03T00:39:41;100632.97;;;15.22;100.00
49122;BME280;35529;44.342;25.944;2022-09-03T00:42:26;100634.50;;;15.30;100.00
49122;BME280;35529;44.342;25.944;2022-09-03T00:47:32;100631.25;;;15.28;100.00
49122;BME280;35529;44.342;25.944;2022-09-03T00:50:07;100626.25;;;15.31;100.00
49122;BME280;35529;44.342;25.944;2022-09-03T00:58:03;100617.84;;;15.46;100.00
49122;BME280;35529;44.342;25.944;2022-09-03T01:00:35;100629.81;;;15.44;100.00
49122;BME280;35529;44.342;25.944;2022-09-03T01:03:11;100614.00;;;15.42;100.00
49122;BME280;35529;44.342;25.944;2022-09-03T01:05:52;100618.16;;;15.38;100.00
49122;BME280;35529;44.342;25.944;2022-09-03T01:13:55;100620.38;;;15.41;100.00
49122;BME280;35529;44.342;25.944;2022-09-03T01:16:27;100620.16;;;15.42;100.00
49122;BME280;35529;44.342;25.944;2022-09-03T01:29:24;100632.00;;;15.65;100.00
49122;BME280;35529;44.342;25.944;2022-09-03T01:34:41;100637.97;;;15.67;100.00
49122;BME280;35529;44.342;25.944;2022-09-03T01:47:37;100638.25;;;15.59;100.00
49122;BME280;35529;44.342;25.944;2022-09-03T01:53:03;100648.38;;;15.57;100.00
49122;BME280;35529;44.342;25.944;2022-09-03T01:58:25;100652.25;;;15.61;100.00
49122;BME280;35529;44.342;25.944;2022-09-03T02:00:56;100650.13;;;15.63;100.00
49122;BME280;35529;44.342;25.944;2022-09-03T02:03:32;100645.38;;;15.65;100.00
49122;BME280;35529;44.342;25.944;2022-09-03T02:06:02;100648.53;;;15.62;100.00
49122;BME280;35529;44.342;25.944;2022-09-03T02:08:32;100660.50;;;15.59;100.00
49122;BME280;35529;44.342;25.944;2022-09-03T02:10:58;100661.31;;;15.60;100.00
49122;BME280;35529;44.342;25.944;2022-09-03T02:13:31;100650.97;;;15.64;100.00
49122;BME280;35529;44.342;25.944;2022-09-03T02:16:08;100653.66;;;15.64;100.00
49122;BME280;35529;44.342;25.944;2022-09-03T02:18:36;100659.38;;;15.67;100.00
49122;BME280;35529;44.342;25.944;2022-09-03T02:21:06;100648.06;;;15.65;100.00
49122;BME280;35529;44.342;25.944;2022-09-03T02:23:32;100648.78;;;15.72;100.00
49122;BME280;35529;44.342;25.944;2022-09-03T02:25:59;100651.25;;;15.74;100.00
49122;BME280;35529;44.342;25.944;2022-09-03T02:28:27;100654.50;;;15.76;100.00
49122;BME280;35529;44.342;25.944;2022-09-03T02:30:53;100661.97;;;15.74;100.00
49122;BME280;35529;44.342;25.944;2022-09-03T02:33:19;100660.66;;;15.76;100.00
49122;BME280;35529;44.342;25.944;2022-09-03T02:35:45;100656.63;;;15.74;100.00
49122;BME280;35529;44.342;25.944;2022-09-03T02:38:14;100653.94;;;15.74;100.00
49122;BME280;35529;44.342;25.944;2022-09-03T02:40:41;100661.50;;;15.77;100.00
49122;BME280;35529;44.342;25.944;2022-09-03T02:43:10;100656.31;;;15.82;100.00
49122;BME280;35529;44.342;25.944;2022-09-03T02:45:41;100651.13;;;15.87;100.00
49122;BME280;35529;44.342;25.944;2022-09-03T02:48:15;100657.75;;;15.85;100.00
49122;BME280;35529;44.342;25.944;2022-09-03T02:50:43;100657.75;;;15.85;100.00
49122;BME280;35529;44.342;25.944;2022-09-03T02:53:09;100655.19;;;15.90;100.00
49122;BME280;35529;44.342;25.944;2022-09-03T02:55:35;100658.44;;;15.92;100.00
49122;BME280;35529;44.342;25.944;2022-09-03T02:58:01;100658.44;;;15.92;100.00
49122;BME280;35529;44.342;25.944;2022-09-03T03:00:30;100656.00;;;15.90;100.00
49122;BME280;35529;44.342;25.944;2022-09-03T03:02:56;100656.22;;;15.89;100.00
49122;BME280;35529;44.342;25.944;2022-09-03T03:05:25;100652.72;;;15.88;100.00
49122;BME280;35529;44.342;25.944;2022-09-03T03:07:54;100647.84;;;15.85;100.00
49122;BME280;35529;44.342;25.944;2022-09-03T03:10:23;100649.94;;;15.83;100.00
49122;BME280;35529;44.342;25.944;2022-09-03T03:12:49;100650.13;;;15.82;100.00
49122;BME280;35529;44.342;25.944;2022-09-03T03:15:15;100660.03;;;15.81;100.00
49122;BME280;35529;44.342;25.944;2022-09-03T03:17:41;100652.22;;;15.80;100.00
49122;BME280;35529;44.342;25.944;2022-09-03T03:20:08;100649.09;;;15.83;100.00
49122;BME280;35529;44.342;25.944;2022-09-03T03:22:36;100644.34;;;15.85;100.00
49122;BME280;35529;44.342;25.944;2022-09-03T03:25:02;100653.03;;;15.80;100.00
49122;BME280;35529;44.342;25.944;2022-09-03T03:27:30;100654.88;;;15.80;100.00
49122;BME280;35529;44.342;25.944;2022-09-03T03:29:58;100649.34;;;15.81;100.00
49122;BME280;35529;44.342;25.944;2022-09-03T03:32:25;100650.81;;;15.77;100.00
49122;BME280;35529;44.342;25.944;2022-09-03T03:34:54;100646.94;;;15.73;100.00
49122;BME280;35529;44.342;25.944;2022-09-03T03:37:20;100640.56;;;15.74;100.00
49122;BME280;35529;44.342;25.944;2022-09-03T03:39:48;100649.84;;;15.71;100.00
49122;BME280;35529;44.342;25.944;2022-09-03T03:42:16;100637.13;;;15.67;100.00
49122;BME280;35529;44.342;25.944;2022-09-03T03:44:46;100647.47;;;15.63;100.00
49122;BME280;35529;44.342;25.944;2022-09-03T03:47:23;100646.19;;;15.66;100.00
49122;BME280;35529;44.342;25.944;2022-09-03T03:49:54;100643.31;;;15.67;100.00
49122;BME280;35529;44.342;25.944;2022-09-03T03:52:28;100641.81;;;15.71;100.00
49122;BME280;35529;44.342;25.944;2022-09-03T03:55:00;100655.53;;;15.75;100.00
49122;BME280;35529;44.342;25.944;2022-09-03T03:57:34;100655.53;;;15.75;100.00
49122;BME280;35529;44.342;25.944;2022-09-03T04:00:08;100656.63;;;15.74;100.00
49122;BME280;35529;44.342;25.944;2022-09-03T04:02:37;100649.84;;;15.71;100.00
49122;BME280;35529;44.342;25.944;2022-09-03T04:05:03;100653.72;;;15.75;100.00
49122;BME280;35529;44.342;25.944;2022-09-03T04:07:30;100655.72;;;15.80;100.00
49122;BME280;35529;44.342;25.944;2022-09-03T04:09:56;100659.94;;;15.88;100.00
49122;BME280;35529;44.342;25.944;2022-09-03T04:12:22;100650.88;;;15.89;100.00
49122;BME280;35529;44.342;25.944;2022-09-03T04:14:48;100661.72;;;15.94;100.00
49122;BME280;35529;44.342;25.944;2022-09-03T04:17:14;100657.31;;;16.00;100.00
49122;BME280;35529;44.342;25.944;2022-09-03T04:19:40;100661.53;;;16.07;100.00
49122;BME280;35529;44.342;25.944;2022-09-03T04:22:06;100659.34;;;16.16;100.00
49122;BME280;35529;44.342;25.944;2022-09-03T04:24:37;100666.34;;;16.17;100.00
49122;BME280;35529;44.342;25.944;2022-09-03T04:27:06;100671.81;;;16.22;100.00
49122;BME280;35529;44.342;25.944;2022-09-03T04:29:32;100670.31;;;16.27;100.00
49122;BME280;35529;44.342;25.944;2022-09-03T04:32:00;100686.75;;;16.30;100.00
49122;BME280;35529;44.342;25.944;2022-09-03T04:34:47;100679.28;;;16.32;100.00
49122;BME280;35529;44.342;25.944;2022-09-03T04:37:15;100681.75;;;16.34;100.00
49122;BME280;35529;44.342;25.944;2022-09-03T04:39:44;100685.34;;;16.39;100.00
49122;BME280;35529;44.342;25.944;2022-09-03T04:42:10;100680.72;;;16.47;100.00
49122;BME280;35529;44.342;25.944;2022-09-03T04:44:39;100683.41;;;16.47;100.00
49122;BME280;35529;44.342;25.944;2022-09-03T04:47:06;100686.66;;;16.49;100.00
49122;BME280;35529;44.342;25.944;2022-09-03T04:49:32;100690.03;;;16.44;100.00
49122;BME280;35529;44.342;25.944;2022-09-03T04:51:59;100685.34;;;16.39;100.00
49122;BME280;35529;44.342;25.944;2022-09-03T04:54:25;100692.81;;;16.37;100.00
49122;BME280;35529;44.342;25.944;2022-09-03T04:56:51;100693.19;;;16.41;100.00
49122;BME280;35529;44.342;25.944;2022-09-03T04:59:20;100698.88;;;16.45;100.00
49122;BME280;35529;44.342;25.944;2022-09-03T05:01:46;100698.88;;;16.45;100.00
49122;BME280;35529;44.342;25.944;2022-09-03T05:04:12;100707.53;;;16.47;100.00
49122;BME280;35529;44.342;25.944;2022-09-03T05:06:38;100696.91;;;16.40;100.00
49122;BME280;35529;44.342;25.944;2022-09-03T05:09:07;100709.28;;;16.41;100.00
49122;BME280;35529;44.342;25.944;2022-09-03T05:11:33;100706.09;;;16.32;100.00
49122;BME280;35529;44.342;25.944;2022-09-03T05:13:59;100706.78;;;16.28;100.00
49122;BME280;35529;44.342;25.944;2022-09-03T05:16:26;100699.69;;;16.33;100.00
49122;BME280;35529;44.342;25.944;2022-09-03T05:18:56;100711.22;;;16.34;100.00
49122;BME280;35529;44.342;25.944;2022-09-03T05:21:26;100709.00;;;16.31;100.00
49122;BME280;35529;44.342;25.944;2022-09-03T05:23:56;100711.53;;;16.25;100.00
49122;BME280;35529;44.342;25.944;2022-09-03T05:26:26;100716.69;;;16.27;100.00
49122;BME280;35529;44.342;25.944;2022-09-03T05:28:54;100707.59;;;16.28;100.00
49122;BME280;35529;44.342;25.944;2022-09-03T05:31:21;100713.66;;;16.23;100.00
49122;BME280;35529;44.342;25.944;2022-09-03T05:33:51;100705.72;;;16.17;100.00
49122;BME280;35529;44.342;25.944;2022-09-03T05:36:19;100708.59;;;16.15;100.00
49122;BME280;35529;44.342;25.944;2022-09-03T05:38:47;100706.75;;;16.16;100.00
49122;BME280;35529;44.342;25.944;2022-09-03T05:41:16;100712.25;;;16.21;100.00
49122;BME280;35529;44.342;25.944;2022-09-03T05:43:46;100719.00;;;16.23;100.00
49122;BME280;35529;44.342;25.944;2022-09-03T05:46:18;100718.53;;;16.27;100.00
49122;BME280;35529;44.342;25.944;2022-09-03T05:48:47;100723.06;;;16.26;100.00
49122;BME280;35529;44.342;25.944;2022-09-03T05:51:21;100730.53;;;16.24;100.00
49122;BME280;35529;44.342;25.944;2022-09-03T05:53:47;100730.41;;;16.19;100.00
49122;BME280;35529;44.342;25.944;2022-09-03T05:56:15;100724.81;;;16.20;100.00
49122;BME280;35529;44.342;25.944;2022-09-03T05:58:45;100724.94;;;16.25;100.00
49122;BME280;35529;44.342;25.944;2022-09-03T06:01:16;100725.31;;;16.29;100.00
49122;BME280;35529;44.342;25.944;2022-09-03T06:03:43;100722.31;;;16.37;100.00
49122;BME280;35529;44.342;25.944;2022-09-03T06:06:12;100735.22;;;16.40;100.00
49122;BME280;35529;44.342;25.944;2022-09-03T06:08:39;100737.91;;;16.40;100.00
49122;BME280;35529;44.342;25.944;2022-09-03T06:11:06;100740.72;;;16.46;100.00
49122;BME280;35529;44.342;25.944;2022-09-03T06:13:33;100747.63;;;16.53;100.00
49122;BME280;35529;44.342;25.944;2022-09-03T06:16:00;100752.44;;;16.63;100.00
49122;BME280;35529;44.342;25.944;2022-09-03T06:18:27;100748.69;;;16.64;100.00
49122;BME280;35529;44.342;25.944;2022-09-03T06:20:57;100755.81;;;16.58;100.00
49122;BME280;35529;44.342;25.944;2022-09-03T06:23:24;100750.44;;;16.58;100.00
49122;BME280;35529;44.342;25.944;2022-09-03T06:26:00;100768.25;;;16.53;100.00
49122;BME280;35529;44.342;25.944;2022-09-03T06:28:26;100765.31;;;16.42;100.00
49122;BME280;35529;44.342;25.944;2022-09-03T06:30:53;100775.66;;;16.39;100.00
49122;BME280;35529;44.342;25.944;2022-09-03T06:33:28;100769.72;;;16.37;100.00
49122;BME280;35529;44.342;25.944;2022-09-03T06:36:00;100770.53;;;16.37;100.00
49122;BME280;35529;44.342;25.944;2022-09-03T06:38:28;100771.34;;;16.38;100.00
49122;BME280;35529;44.342;25.944;2022-09-03T06:40:57;100778.56;;;16.37;100.00
49122;BME280;35529;44.342;25.944;2022-09-03T06:43:27;100781.84;;;16.39;100.00
49122;BME280;35529;44.342;25.944;2022-09-03T06:45:57;100774.41;;;16.41;100.00
49122;BME280;35529;44.342;25.944;2022-09-03T06:48:23;100785.94;;;16.42;100.00
49122;BME280;35529;44.342;25.944;2022-09-03T06:51:02;100788.25;;;16.38;100.00
49122;BME280;35529;44.342;25.944;2022-09-03T06:53:30;100776.13;;;16.36;100.00
49122;BME280;35529;44.342;25.944;2022-09-03T06:56:00;100791.59;;;16.34;100.00
49122;BME280;35529;44.342;25.944;2022-09-03T06:58:29;100792.06;;;16.31;100.00
49122;BME280;35529;44.342;25.944;2022-09-03T07:01:02;100791.47;;;16.29;100.00
49122;BME280;35529;44.342;25.944;2022-09-03T07:03:31;100806.66;;;16.35;100.00
49122;BME280;35529;44.342;25.944;2022-09-03T07:06:04;100815.16;;;16.32;100.00
49122;BME280;35529;44.342;25.944;2022-09-03T07:08:35;100814.16;;;16.26;100.00
49122;BME280;35529;44.342;25.944;2022-09-03T07:11:08;100812.56;;;16.25;100.00
49122;BME280;35529;44.342;25.944;2022-09-03T07:13:38;100817.44;;;16.28;100.00
49122;BME280;35529;44.342;25.944;2022-09-03T07:16:12;100815.81;;;16.27;100.00
49122;BME280;35529;44.342;25.944;2022-09-03T07:18:41;100814.31;;;16.31;100.00
49122;BME280;35529;44.342;25.944;2022-09-03T07:21:16;100817.28;;;16.41;100.00
49122;BME280;35529;44.342;25.944;2022-09-03T07:23:48;100819.72;;;16.43;100.00
49122;BME280;35529;44.342;25.944;2022-09-03T07:26:27;100828.72;;;16.49;100.00
49122;BME280;35529;44.342;25.944;2022-09-03T07:28:59;100821.19;;;16.57;100.00
49122;BME280;35529;44.342;25.944;2022-09-03T07:31:29;100819.59;;;16.68;100.00
49122;BME280;35529;44.342;25.944;2022-09-03T07:33:57;100826.94;;;16.73;100.00
49122;BME280;35529;44.342;25.944;2022-09-03T07:36:24;100822.44;;;16.85;100.00
49122;BME280;35529;44.342;25.944;2022-09-03T07:38:53;100828.13;;;16.77;100.00
49122;BME280;35529;44.342;25.944;2022-09-03T07:41:19;100828.22;;;16.70;100.00
49122;BME280;35529;44.342;25.944;2022-09-03T07:43:50;100827.09;;;16.48;100.00
49122;BME280;35529;44.342;25.944;2022-09-03T07:46:20;100832.19;;;16.37;100.00
49122;BME280;35529;44.342;25.944;2022-09-03T07:48:49;100832.41;;;16.36;100.00
49122;BME280;35529;44.342;25.944;2022-09-03T07:51:19;100838.38;;;16.19;100.00
49122;BME280;35529;44.342;25.944;2022-09-03T07:53:51;100845.09;;;16.10;100.00
49122;BME280;35529;44.342;25.944;2022-09-03T07:56:20;100850.66;;;16.08;100.00
49122;BME280;35529;44.342;25.944;2022-09-03T07:58:46;100846.06;;;15.97;100.00
49122;BME280;35529;44.342;25.944;2022-09-03T08:01:17;100853.47;;;15.95;100.00
49122;BME280;35529;44.342;25.944;2022-09-03T08:03:47;100847.88;;;15.78;100.00
49122;BME280;35529;44.342;25.944;2022-09-03T08:06:18;100846.66;;;15.81;100.00
49122;BME280;35529;44.342;25.944;2022-09-03T08:08:47;100850.75;;;15.76;100.00
49122;BME280;35529;44.342;25.944;2022-09-03T08:11:17;100857.25;;;15.69;100.00
49122;BME280;35529;44.342;25.944;2022-09-03T08:13:52;100857.59;;;15.72;100.00
49122;BME280;35529;44.342;25.944;2022-09-03T08:16:18;100857.47;;;15.67;100.00
49122;BME280;35529;44.342;25.944;2022-09-03T08:18:45;100854.41;;;15.64;100.00
49122;BME280;35529;44.342;25.944;2022-09-03T08:21:13;100859.97;;;15.62;100.00
49122;BME280;35529;44.342;25.944;2022-09-03T08:23:43;100854.00;;;15.60;100.00
49122;BME280;35529;44.342;25.944;2022-09-03T08:26:12;100863.63;;;15.68;100.00
49122;BME280;35529;44.342;25.944;2022-09-03T08:28:41;100868.22;;;15.61;100.00
49122;BME280;35529;44.342;25.944;2022-09-03T08:31:13;100861.81;;;15.62;100.00
49122;BME280;35529;44.342;25.944;2022-09-03T08:33:46;100859.78;;;15.38;100.00
49122;BME280;35529;44.342;25.944;2022-09-03T08:36:17;100864.72;;;15.35;100.00
49122;BME280;35529;44.342;25.944;2022-09-03T08:38:44;100866.09;;;15.44;100.00
49122;BME280;35529;44.342;25.944;2022-09-03T08:43:41;100861.75;;;15.24;100.00
49122;BME280;35529;44.342;25.944;2022-09-03T08:46:11;100862.91;;;15.35;100.00
49122;BME280;35529;44.342;25.944;2022-09-03T08:48:37;100860.03;;;15.30;100.00
49122;BME280;35529;44.342;25.944;2022-09-03T08:51:03;100869.28;;;15.34;100.00
49122;BME280;35529;44.342;25.944;2022-09-03T08:53:47;100870.31;;;15.33;100.00
49122;BME280;35529;44.342;25.944;2022-09-03T08:56:20;100875.47;;;15.28;100.00
49122;BME280;35529;44.342;25.944;2022-09-03T08:58:46;100875.13;;;15.24;100.00
49122;BME280;35529;44.342;25.944;2022-09-03T09:01:25;100876.09;;;15.30;100.00
49122;BME280;35529;44.342;25.944;2022-09-03T09:22:09;100867.84;;;16.19;100.00
49122;BME280;35529;44.342;25.944;2022-09-03T09:24:41;100859.44;;;16.34;100.00
49122;BME280;35529;44.342;25.944;2022-09-03T09:27:12;100863.66;;;16.42;100.00
49122;BME280;35529;44.342;25.944;2022-09-03T09:29:42;100869.69;;;16.37;100.00
49122;BME280;35529;44.342;25.944;2022-09-03T09:32:09;100874.50;;;16.47;100.00
49122;BME280;35529;44.342;25.944;2022-09-03T09:34:37;100870.06;;;16.41;100.00
49122;BME280;35529;44.342;25.944;2022-09-03T09:37:09;100879.88;;;16.47;100.00
49122;BME280;35529;44.342;25.944;2022-09-03T09:39:36;100886.88;;;16.48;100.00
49122;BME280;35529;44.342;25.944;2022-09-03T09:42:07;100884.81;;;16.50;100.00
49122;BME280;35529;44.342;25.944;2022-09-03T09:44:42;100882.19;;;16.44;100.00
49122;BME280;35529;44.342;25.944;2022-09-03T09:49:54;100882.50;;;16.35;100.00
49122;BME280;35529;44.342;25.944;2022-09-03T09:52:28;100885.13;;;16.23;100.00
49122;BME280;35529;44.342;25.944;2022-09-03T09:55:13;100884.38;;;16.16;100.00
49122;BME280;35529;44.342;25.944;2022-09-03T09:57:42;100887.19;;;16.21;100.00
49122;BME280;35529;44.342;25.944;2022-09-03T10:00:12;100886.97;;;16.41;100.00
49122;BME280;35529;44.342;25.944;2022-09-03T10:02:48;100884.88;;;16.44;100.00
49122;BME280;35529;44.342;25.944;2022-09-03T10:05:26;100889.69;;;16.53;100.00
49122;BME280;35529;44.342;25.944;2022-09-03T10:07:54;100894.59;;;16.56;100.00
49122;BME280;35529;44.342;25.944;2022-09-03T10:10:21;100893.25;;;16.66;100.00
49122;BME280;35529;44.342;25.944;2022-09-03T10:12:52;100897.81;;;16.65;100.00
49122;BME280;35529;44.342;25.944;2022-09-03T10:15:28;100909.97;;;16.80;100.00
49122;BME280;35529;44.342;25.944;2022-09-03T10:23:15;100914.31;;;16.62;100.00
49122;BME280;35529;44.342;25.944;2022-09-03T10:28:31;100918.81;;;16.31;100.00
49122;BME280;35529;44.342;25.944;2022-09-03T10:33:36;100926.25;;;15.92;100.00
49122;BME280;35529;44.342;25.944;2022-09-03T10:36:10;100923.34;;;15.94;100.00
49122;BME280;35529;44.342;25.944;2022-09-03T10:38:40;100923.59;;;16.11;100.00
49122;BME280;35529;44.342;25.944;2022-09-03T10:41:17;100920.91;;;16.29;100.00
49122;BME280;35529;44.342;25.944;2022-09-03T10:46:33;100925.59;;;16.52;100.00
49122;BME280;35529;44.342;25.944;2022-09-03T11:07:09;100937.25;;;16.76;100.00
49122;BME280;35529;44.342;25.944;2022-09-03T11:09:38;100945.91;;;16.79;100.00
49122;BME280;35529;44.342;25.944;2022-09-03T11:14:43;100936.59;;;16.63;100.00
49122;BME280;35529;44.342;25.944;2022-09-03T11:17:20;100941.81;;;16.76;100.00
49122;BME280;35529;44.342;25.944;2022-09-03T11:19:49;100938.44;;;16.81;100.00
49122;BME280;35529;44.342;25.944;2022-09-03T11:22:18;100940.53;;;16.97;100.00
49122;BME280;35529;44.342;25.944;2022-09-03T11:24:48;100942.56;;;17.14;100.00
49122;BME280;35529;44.342;25.944;2022-09-03T11:29:57;100931.63;;;16.97;100.00
49122;BME280;35529;44.342;25.944;2022-09-03T11:40:37;100951.97;;;16.86;100.00
49122;BME280;35529;44.342;25.944;2022-09-03T11:48:37;100950.00;;;16.44;100.00
49122;BME280;35529;44.342;25.944;2022-09-03T11:51:14;100957.81;;;16.46;100.00
49122;BME280;35529;44.342;25.944;2022-09-03T11:53:41;100968.09;;;16.49;100.00
49122;BME280;35529;44.342;25.944;2022-09-03T11:56:18;100973.91;;;16.46;100.00
49122;BME280;35529;44.342;25.944;2022-09-03T11:58:44;100959.47;;;16.47;100.00
49122;BME280;35529;44.342;25.944;2022-09-03T12:01:12;100969.00;;;16.61;100.00
49122;BME280;35529;44.342;25.944;2022-09-03T12:03:42;100963.09;;;16.71;100.00
49122;BME280;35529;44.342;25.944;2022-09-03T12:06:22;100964.53;;;16.73;100.00
49122;BME280;35529;44.342;25.944;2022-09-03T12:14:01;100945.91;;;16.79;100.00
49122;BME280;35529;44.342;25.944;2022-09-03T12:19:02;100956.53;;;16.85;100.00
49122;BME280;35529;44.342;25.944;2022-09-03T12:21:36;100950.41;;;16.97;100.00
49122;BME280;35529;44.342;25.944;2022-09-03T12:24:02;100947.78;;;17.08;100.00
49122;BME280;35529;44.342;25.944;2022-09-03T12:26:28;100946.09;;;17.26;100.00
49122;BME280;35529;44.342;25.944;2022-09-03T12:28:55;100945.97;;;17.33;100.00
49122;BME280;35529;44.342;25.944;2022-09-03T12:31:24;100946.69;;;17.40;100.00
49122;BME280;35529;44.342;25.944;2022-09-03T12:33:52;100957.09;;;17.60;100.00
49122;BME280;35529;44.342;25.944;2022-09-03T12:36:21;100949.44;;;17.75;100.00
49122;BME280;35529;44.342;25.944;2022-09-03T12:38:48;100953.28;;;17.80;100.00
49122;BME280;35529;44.342;25.944;2022-09-03T12:41:21;100949.72;;;17.98;100.00
49122;BME280;35529;44.342;25.944;2022-09-03T12:43:51;100958.78;;;18.20;100.00
49122;BME280;35529;44.342;25.944;2022-09-03T12:46:21;100940.94;;;18.14;100.00
49122;BME280;35529;44.342;25.944;2022-09-03T12:48:51;100941.28;;;18.06;100.00
49122;BME280;35529;44.342;25.944;2022-09-03T12:51:18;100938.50;;;18.01;100.00
49122;BME280;35529;44.342;25.944;2022-09-03T12:53:44;100931.31;;;17.83;100.00
49122;BME280;35529;44.342;25.944;2022-09-03T12:56:10;100939.06;;;17.91;100.00
49122;BME280;35529;44.342;25.944;2022-09-03T12:59:01;100946.91;;;18.04;100.00
49122;BME280;35529;44.342;25.944;2022-09-03T13:01:27;100950.88;;;18.02;100.00
49122;BME280;35529;44.342;25.944;2022-09-03T13:04:07;100946.66;;;17.94;100.00
49122;BME280;35529;44.342;25.944;2022-09-03T13:06:44;100944.31;;;17.86;100.00
49122;BME280;35529;44.342;25.944;2022-09-03T13:09:14;100946.91;;;17.92;100.00
49122;BME280;35529;44.342;25.944;2022-09-03T13:11:44;100954.13;;;17.92;100.00
49122;BME280;35529;44.342;25.944;2022-09-03T13:14:11;100946.03;;;17.80;100.00
49122;BME280;35529;44.342;25.944;2022-09-03T13:24:24;100952.13;;;17.75;100.00
49122;BME280;35529;44.342;25.944;2022-09-03T13:31:51;100964.84;;;17.68;100.00
49122;BME280;35529;44.342;25.944;2022-09-03T13:36:51;100961.56;;;17.66;100.00
49122;BME280;35529;44.342;25.944;2022-09-03T13:39:21;100958.41;;;17.69;100.00
49122;BME280;35529;44.342;25.944;2022-09-03T13:42:05;100976.16;;;17.70;100.00
49122;BME280;35529;44.342;25.944;2022-09-03T13:53:47;100970.44;;;17.79;100.00
49122;BME280;35529;44.342;25.944;2022-09-03T13:59:26;100962.69;;;17.47;100.00
49122;BME280;35529;44.342;25.944;2022-09-03T14:01:59;100957.31;;;17.35;100.00
49122;BME280;35529;44.342;25.944;2022-09-03T14:04:33;100965.47;;;17.40;100.00
49122;BME280;35529;44.342;25.944;2022-09-03T14:07:12;100968.91;;;17.59;100.00
49122;BME280;35529;44.342;25.944;2022-09-03T14:09:57;100962.47;;;17.60;100.00
49122;BME280;35529;44.342;25.944;2022-09-03T14:12:36;100965.41;;;17.70;100.00
49122;BME280;35529;44.342;25.944;2022-09-03T14:25:27;100964.38;;;18.31;100.00
49122;BME280;35529;44.342;25.944;2022-09-03T14:33:55;100971.03;;;18.52;100.00
49122;BME280;35529;44.342;25.944;2022-09-03T14:36:28;100970.94;;;18.35;100.00
49122;BME280;35529;44.342;25.944;2022-09-03T14:39:02;100971.88;;;18.29;100.00
49122;BME280;35529;44.342;25.944;2022-09-03T14:41:37;100978.31;;;18.28;100.00
49122;BME280;35529;44.342;25.944;2022-09-03T14:44:21;100976.78;;;18.20;100.00
49122;BME280;35529;44.342;25.944;2022-09-03T14:54:31;100963.09;;;18.45;100.00
49122;BME280;35529;44.342;25.944;2022-09-03T14:57:15;100958.66;;;18.39;100.00
49122;BME280;35529;44.342;25.944;2022-09-03T15:04:49;100955.50;;;18.83;100.00
49122;BME280;35529;44.342;25.944;2022-09-03T15:07:26;100960.06;;;18.82;100.00
49122;BME280;35529;44.342;25.944;2022-09-03T15:12:36;100978.81;;;18.65;100.00
49122;BME280;35529;44.342;25.944;2022-09-03T15:23:01;100995.47;;;18.38;100.00
49122;BME280;35529;44.342;25.944;2022-09-03T15:28:15;100998.03;;;18.57;100.00
49122;BME280;35529;44.342;25.944;2022-09-03T15:30:49;100988.78;;;18.65;100.00
49122;BME280;35529;44.342;25.944;2022-09-03T15:33:32;100992.38;;;18.70;100.00
49122;BME280;35529;44.342;25.944;2022-09-03T15:37:07;100999.59;;;18.70;100.00
49122;BME280;35529;44.342;25.944;2022-09-03T15:39:08;101006.06;;;18.69;100.00
49122;BME280;35529;44.342;25.944;2022-09-03T15:41:39;101006.91;;;18.57;100.00
49122;BME280;35529;44.342;25.944;2022-09-03T15:55:06;101015.69;;;18.41;100.00
49122;BME280;35529;44.342;25.944;2022-09-03T16:00:16;101007.63;;;18.29;100.00
49122;BME280;35529;44.342;25.944;2022-09-03T16:02:49;101009.72;;;18.27;100.00
49122;BME280;35529;44.342;25.944;2022-09-03T16:11:15;101017.09;;;18.43;100.00
49122;BME280;35529;44.342;25.944;2022-09-03T16:14:00;101013.56;;;18.43;100.00
49122;BME280;35529;44.342;25.944;2022-09-03T16:19:13;101017.22;;;18.37;100.00
49122;BME280;35529;44.342;25.944;2022-09-03T16:21:54;101019.31;;;18.35;100.00
49122;BME280;35529;44.342;25.944;2022-09-03T16:27:16;101030.78;;;18.30;100.00
49122;BME280;35529;44.342;25.944;2022-09-03T16:40:36;101045.38;;;18.11;100.00